Latest Weather Observations for Rabbit Flat

IDD60801

Issued at 1:41 pm CST Sunday 16 December 2018 (issued every 10 minutes, with the page automatically refreshed every 10 minutes)

About weather observations | Map of weather stations | Latest weather observations for NT | Other Formats
Station Details ID: 015666 Name: RABBIT FLAT Lat: -20.18 Lon: 130.01 Height: 340.0 m
Data from the previous 72 hours. | See also: Recent months at Rabbit Flat
Date/Time
CST
Temp
°C
App
Temp
°C
Dew
Point
°C
Rel
Hum
%
Delta-T
°C
Wind Press
QNH
hPa
Press
MSL
hPa
Rain since
9am
mm
Dir  Spd
km/h
Gust
km/h
Spd
kts
Gust
kts
16/01:30pm 42.7 40.6 8.4 13 20.3 N 9 17 5 9 1004.0 - 0.0
16/01:00pm 42.8 40.0 8.5 13 20.3 W 13 24 7 13 1004.5 - 0.0
16/12:30pm 41.3 38.7 9.5 15 19.0 NW 13 26 7 14 1004.9 - 0.0
16/12:00pm 40.0 38.0 10.3 17 17.9 N 11 24 6 13 1005.3 1002.6 0.0
16/11:30am 40.6 38.9 12.5 19 17.4 NNW 13 24 7 13 1005.8 - 0.0
16/11:00am 38.7 38.7 16.3 26 14.5 N 11 22 6 12 1006.2 - 0.0
16/10:30am 38.1 37.9 17.5 30 13.6 NW 15 26 8 14 1006.7 - 0.0
16/10:00am 36.8 37.1 17.9 33 12.5 NNW 13 19 7 10 1006.8 - 0.0
16/09:30am 35.0 35.4 19.8 41 10.2 NNW 17 24 9 13 1006.7 - 0.0
16/09:00am 33.5 33.4 19.6 44 9.3 N 19 28 10 15 1006.8 1004.0 0.0
16/08:30am 32.6 32.8 20.2 48 8.3 NNW 19 26 10 14 1006.9 - 0.0
16/08:00am 31.4 31.7 20.7 53 7.2 NNW 20 30 11 16 1006.9 - 0.0
16/07:30am 30.0 31.0 20.3 56 6.5 N 15 20 8 11 1006.9 - 0.0
16/07:00am 26.7 26.7 14.1 46 7.6 N 7 9 4 5 1006.7 - 0.0
16/06:30am 24.1 22.5 8.1 36 8.6 NW 6 7 3 4 1006.4 - 0.0
16/06:00am 24.0 21.5 6.7 33 9.1 NE 9 15 5 8 1006.1 1003.4 0.0
16/05:30am 24.1 21.1 5.9 31 9.4 NW 11 15 6 8 1005.5 - 0.0
16/05:00am 22.7 19.5 3.3 28 9.5 WNW 9 11 5 6 1005.0 - 0.0
16/04:30am 22.7 19.5 2.8 27 9.7 WNW 9 11 5 6 1004.9 - 0.0
16/04:00am 22.8 20.4 2.3 26 9.9 ENE 4 7 2 4 1004.8 - 0.0
16/03:30am 24.2 21.4 1.8 23 10.8 SE 6 7 3 4 1004.6 - 0.0
16/03:00am 25.6 21.8 1.7 21 11.6 SE 11 15 6 8 1004.6 1001.8 0.0
16/02:30am 24.9 21.5 1.7 22 11.2 SW 9 11 5 6 1004.6 - 0.0
16/02:00am 26.3 23.0 2.3 21 11.8 ESE 9 28 5 15 1005.0 - 0.0
16/01:30am 26.6 22.8 1.8 20 12.1 SE 11 13 6 7 1004.7 - 0.0
16/01:00am 26.6 23.2 1.8 20 12.1 S 9 11 5 6 1004.7 - 0.0
16/12:30am 28.1 24.4 -0.1 16 13.5 SSE 9 11 5 6 1004.9 - 0.0
16/12:00am 31.5 26.5 -1.3 12 15.8 S 15 19 8 10 1004.8 1002.1 0.0
 
Date/Time
CST
Temp
°C
App
Temp
°C
Dew
Point
°C
Rel
Hum
%
Delta-T
°C
Wind Press
QNH
hPa
Press
MSL
hPa
Rain since
9am
mm
Dir  Spd
km/h
Gust
km/h
Spd
kts
Gust
kts
15/11:30pm 32.0 27.2 0.2 13 15.7 SSW 15 20 8 11 1004.6 - 0.0
15/11:00pm 30.3 26.3 0.8 15 14.5 SSW 11 13 6 7 1004.3 - 0.0
15/10:30pm 31.2 27.2 0.6 14 15.1 S 11 13 6 7 1004.1 - 0.0
15/10:00pm 31.8 27.7 0.0 13 15.6 S 11 13 6 7 1003.8 - 0.0
15/09:30pm 31.8 28.1 0.0 13 15.6 S 9 11 5 6 1003.5 - 0.0
15/09:00pm 33.6 29.4 -0.9 11 17.0 S 11 13 6 7 1003.2 1000.5 0.0
15/08:30pm 34.8 30.9 -1.3 10 17.7 S 9 11 5 6 1003.0 - 0.0
15/08:00pm 36.2 32.3 -1.7 9 18.6 S 9 13 5 7 1002.7 - 0.0
15/07:30pm 38.6 33.6 -1.5 8 20.1 S 15 20 8 11 1002.1 - 0.0
15/07:00pm 40.5 34.5 -1.9 7 21.3 SSW 20 28 11 15 1001.8 - 0.0
15/06:30pm 41.3 35.2 0.5 8 21.4 S 22 33 12 18 1001.7 - 0.0
15/06:00pm 41.9 34.8 -0.9 7 22.1 S 26 35 14 19 1001.4 998.6 0.0
15/05:30pm 42.1 34.3 -0.8 7 22.2 S 30 39 16 21 1001.3 - 0.0
15/05:00pm 42.6 37.9 3.1 9 21.7 S 17 30 9 16 1001.1 - 0.0
15/04:30pm 42.0 38.5 5.5 11 20.7 WSW 13 28 7 15 1001.2 - 0.0
15/04:00pm 41.8 38.5 6.6 12 20.2 WSW 13 28 7 15 1001.4 - 0.0
15/03:30pm 42.5 39.0 7.1 12 20.5 WNW 15 37 8 20 1001.8 - 0.0
15/03:00pm 42.2 38.6 6.9 12 20.5 NNE 15 20 8 11 1002.0 999.3 0.0
15/02:30pm 40.0 37.4 9.4 16 18.2 NE 13 24 7 13 1002.6 - 0.0
15/02:00pm 40.8 39.5 12.6 19 17.5 WSW 11 22 6 12 1003.0 - 0.0
15/01:30pm 38.7 37.5 11.7 20 16.5 SW 9 17 5 9 1003.6 - 0.0
15/01:00pm 38.4 37.2 12.9 22 15.8 SSE 11 19 6 10 1004.1 - 0.0
15/12:30pm 38.4 37.8 13.6 23 15.5 NE 9 20 5 11 1004.6 - 0.0
15/12:00pm 38.3 37.6 14.2 24 15.2 SW 11 17 6 9 1005.0 1002.3 0.0
15/11:30am 37.5 36.3 14.1 24 14.7 E 13 26 7 14 1005.5 - 0.0
15/11:00am 36.6 35.4 15.1 27 13.7 NNE 15 28 8 15 1005.8 - 0.0
15/10:30am 35.9 35.9 15.1 29 13.2 E 9 20 5 11 1006.0 - 0.0
15/10:00am 35.8 35.3 15.0 29 13.2 E 11 20 6 11 1006.3 - 0.0
15/09:30am 34.4 32.8 13.8 29 12.7 E 15 24 8 13 1006.4 - 0.0
15/09:00am 34.1 31.7 11.3 25 13.6 ESE 15 20 8 11 1006.3 1003.6 0.0
15/08:30am 32.6 29.7 6.7 20 14.3 SE 11 17 6 9 1006.3 - 0.0
15/08:00am 31.1 28.5 6.2 21 13.5 SSE 9 15 5 8 1006.2 - 0.0
15/07:30am 29.7 26.8 6.4 23 12.6 SSE 11 13 6 7 1006.0 - 0.0
15/07:00am 28.3 25.6 7.5 27 11.4 SSE 11 15 6 8 1006.1 - 0.0
15/06:30am 26.1 23.6 8.1 32 9.8 S 11 11 6 6 1005.9 - 0.0
15/06:00am 25.0 22.6 8.5 35 9.0 S 11 13 6 7 1005.6 1002.9 0.0
15/05:30am 24.8 23.4 9.5 38 8.5 SSW 7 11 4 6 1005.3 - 0.0
15/05:00am 25.1 23.7 9.0 36 8.9 W 6 9 3 5 1004.9 - 0.0
15/04:30am 26.0 24.3 8.5 33 9.6 NNE 7 11 4 6 1004.6 - 0.0
15/04:00am 27.4 24.9 8.3 30 10.5 SSE 11 15 6 8 1004.0 - 0.0
15/03:30am 27.4 25.9 10.6 35 9.6 S 9 13 5 7 1004.1 - 0.0
15/03:00am 28.1 27.2 11.2 35 9.8 S 7 9 4 5 1004.3 1001.5 0.0
15/02:30am 29.0 28.0 11.1 33 10.4 S 7 11 4 6 1004.4 - 0.0
15/02:00am 30.3 27.9 12.7 34 10.5 S 17 24 9 13 1004.6 - 0.0
15/01:30am 28.1 27.6 12.0 36 9.5 NNW 6 7 3 4 1003.9 - 0.0
15/01:00am 29.4 28.3 11.9 34 10.3 NNE 9 11 5 6 1004.0 - 0.0
15/12:30am 29.1 28.3 11.6 33 10.3 N 7 9 4 5 1004.5 - 0.0
15/12:00am 29.3 28.1 10.4 31 10.9 N 7 7 4 4 1004.5 1001.7 0.0
 
Date/Time
CST
Temp
°C
App
Temp
°C
Dew
Point
°C
Rel
Hum
%
Delta-T
°C
Wind Press
QNH
hPa
Press
MSL
hPa
Rain since
9am
mm
Dir  Spd
km/h
Gust
km/h
Spd
kts
Gust
kts
14/11:30pm 30.4 29.2 10.4 29 11.6 NE 7 9 4 5 1004.8 - 0.0
14/11:00pm 31.1 29.6 10.4 28 12.0 NE 9 11 5 6 1004.9 - 0.0
14/10:30pm 32.0 30.9 10.7 27 12.5 NE 7 9 4 5 1005.1 - 0.0
14/10:00pm 32.5 30.8 11.1 27 12.6 NE 11 13 6 7 1005.1 - 0.0
14/09:30pm 32.7 31.0 11.3 27 12.7 NE 11 15 6 8 1005.0 - 0.0
14/09:00pm 33.6 32.0 10.2 24 13.7 NE 9 11 5 6 1004.8 1002.1 0.0
14/08:30pm 34.4 32.6 9.6 22 14.4 ENE 9 13 5 7 1004.6 - 0.0
14/08:00pm 35.2 33.4 9.6 21 14.9 ENE 9 19 5 10 1004.5 - 0.0
14/07:30pm 36.6 33.6 7.6 17 16.5 SSE 13 17 7 9 1004.1 - 0.0
14/07:00pm 37.7 35.1 7.6 16 17.2 SE 11 17 6 9 1003.7 - 0.0
14/06:30pm 38.5 35.0 7.3 15 17.8 SSE 15 20 8 11 1003.5 - 0.0
14/06:00pm 38.9 36.8 6.6 14 18.4 E 7 19 4 10 1003.2 1000.5 0.0
14/05:30pm 39.3 36.5 6.9 14 18.5 W 11 17 6 9 1003.1 - 0.0
14/05:00pm 39.0 35.8 6.7 14 18.3 S 13 22 7 12 1003.2 - 0.0
14/04:30pm 39.2 36.4 6.8 14 18.4 SSE 11 20 6 11 1003.3 - 0.0
14/04:00pm 38.9 36.5 8.5 16 17.7 W 11 15 6 8 1003.6 - 0.0
14/03:30pm 39.8 38.2 10.2 17 17.7 WSW 9 19 5 10 1004.0 - 0.0
14/03:00pm 38.3 37.2 10.6 19 16.7 SSE 7 13 4 7 1004.2 1001.4 0.0
14/02:30pm 37.6 35.0 10.8 20 16.1 ESE 15 24 8 13 1004.5 - 0.0
14/02:00pm 36.6 34.0 10.7 21 15.4 ENE 15 22 8 12 1005.2 - 0.0
14/01:30pm 37.2 35.7 11.9 22 15.4 E 11 19 6 10 1005.6 - 0.0
14/01:00pm 36.3 33.9 12.5 24 14.6 NNE 17 26 9 14 1006.0 - 0.0
14/12:30pm 36.5 35.5 13.3 25 14.4 E 11 35 6 19 1006.3 - 0.0
14/12:00pm 35.4 34.0 14.6 28 13.1 NE 15 28 8 15 1006.8 1004.0 0.0
14/11:30am 35.8 34.0 15.5 29 12.9 ESE 19 28 10 15 1007.2 - 0.0
14/11:00am 34.4 32.9 15.3 31 12.1 ESE 17 28 9 15 1007.6 - 0.0
14/10:30am 33.5 31.5 15.0 32 11.6 E 19 30 10 16 1008.0 - 0.0
14/10:00am 33.5 32.6 16.8 36 10.8 E 17 35 9 19 1008.3 - 0.0
14/09:30am 32.3 33.0 18.8 44 8.9 ENE 13 17 7 9 1008.7 - 0.0
14/09:00am 30.9 32.2 19.3 50 7.7 E 11 17 6 9 1009.0 1006.3 0.0
14/08:30am 30.5 32.1 19.2 51 7.5 E 9 15 5 8 1008.9 - 0.0
14/08:00am 29.0 30.2 19.9 58 6.0 SE 13 17 7 9 1008.8 - 0.0
14/07:30am 27.5 29.4 21.3 69 4.2 SSE 13 19 7 10 1008.5 - 0.0
14/07:00am 25.8 29.0 22.3 81 2.4 SE 9 13 5 7 1008.2 - 0.0
14/06:30am 24.6 28.2 22.3 87 1.6 ESE 7 9 4 5 1008.1 - 0.0
14/06:00am 24.2 27.5 21.9 87 1.6 E 7 11 4 6 1007.8 1005.1 0.0
14/05:30am 24.4 26.6 21.9 86 1.7 ENE 13 17 7 9 1007.5 - 0.0
14/05:00am 24.6 26.9 21.3 82 2.2 E 11 15 6 8 1007.3 - 0.0
14/04:30am 25.0 27.8 20.9 78 2.7 ESE 7 9 4 5 1007.1 - 0.0
14/04:00am 25.0 27.5 21.1 79 2.6 ESE 9 13 5 7 1006.9 - 0.0
14/03:30am 25.1 27.7 21.2 79 2.6 SSE 9 13 5 7 1006.3 - 0.0
14/03:00am 25.0 27.8 21.5 81 2.4 S 9 11 5 6 1006.6 1003.8 0.0
14/02:30am 25.2 28.0 20.9 77 2.9 SSE 7 7 4 4 1006.6 - 0.0
14/02:00am 25.6 29.5 20.4 73 3.4 CALM 0 0 0 0 1006.2 - 0.0
14/01:30am 26.3 29.4 20.2 69 4.0 E 4 7 2 4 1006.3 - 0.0
14/01:00am 26.8 30.5 19.9 66 4.5 CALM 0 7 0 4 1006.7 - 0.0
14/12:30am 27.2 29.0 20.3 66 4.6 N 11 17 6 9 1006.2 - 0.0
14/12:00am 27.3 29.0 20.1 64 4.8 N 11 17 6 9 1006.7 1003.9 0.0
 
Date/Time
CST
Temp
°C
App
Temp
°C
Dew
Point
°C
Rel
Hum
%
Delta-T
°C
Wind Press
QNH
hPa
Press
MSL
hPa
Rain since
9am
mm
Dir  Spd
km/h
Gust
km/h
Spd
kts
Gust
kts
13/11:30pm 27.3 29.9 20.1 64 4.8 NNW 6 9 3 5 1007.8 - 0.0
13/11:00pm 27.9 29.9 19.9 61 5.3 WNW 9 15 5 8 1007.9 - 0.0
13/10:30pm 28.3 29.2 20.1 61 5.4 NE 15 22 8 12 1006.8 - 0.0
13/10:00pm 28.5 29.2 19.7 59 5.8 NNE 15 20 8 11 1006.6 - 0.0
13/09:30pm 28.9 28.4 18.7 54 6.7 NNE 19 26 10 14 1006.0 - 0.0
13/09:00pm 29.0 29.1 18.4 52 6.9 NE 15 24 8 13 1005.9 1003.2 0.0
13/08:30pm 29.9 29.4 17.0 45 8.2 NNE 15 22 8 12 1004.8 - 0.0
13/08:00pm 28.1 27.9 18.5 56 6.2 N 17 22 9 12 1004.7 - 0.0
13/07:30pm 27.3 26.6 19.6 62 5.1 NE 22 30 12 16 1004.8 - 0.0
13/07:00pm 26.1 23.5 20.7 72 3.6 E 35 50 19 27 1004.3 - 0.0
13/06:55pm 26.3 23.2 20.4 70 3.9 E 37 54 20 29 1004.4 - 0.0
13/06:30pm 27.7 25.0 21.3 68 4.3 ESE 37 57 20 31 1004.8 - 0.0
13/06:24pm 27.7 24.8 20.8 66 4.6 ESE 37 65 20 35 1005.0 - 0.0
13/06:21pm 27.7 23.9 20.5 65 4.8 ESE 41 65 22 35 1005.1 - 0.0
13/06:02pm 29.6 25.1 20.2 57 6.3 SSE 44 63 24 34 1005.2 - 0.0
13/06:00pm 29.5 24.5 20.1 57 6.3 SSE 46 63 25 34 1005.3 1002.6 0.0
13/05:47pm 33.1 27.6 17.7 40 10.0 SSE 43 72 23 39 1004.6 - 0.0
13/05:39pm 34.8 29.4 16.1 32 12.0 SE 39 56 21 30 1003.3 - 0.0
13/05:30pm 37.1 35.1 15.0 27 14.0 NNE 19 32 10 17 1001.6 - 0.0
13/05:00pm 33.7 29.9 18.2 39 10.2 NNE 35 57 19 31 1001.0 - 0.0
13/04:54pm 32.9 28.5 16.7 38 10.4 NNE 35 57 19 31 1000.9 - 0.0
13/04:42pm 33.5 30.1 15.9 34 11.2 N 28 41 15 22 1001.8 - 0.0
13/04:30pm 32.9 32.9 19.0 43 9.2 NNE 17 22 9 12 1002.3 - 0.0
13/04:11pm 30.3 30.8 20.8 56 6.4 NNW 19 33 10 18 1002.5 - 0.0
13/04:00pm 28.4 24.7 19.9 60 5.6 W 39 61 21 33 1001.8 - 0.0
13/03:49pm 32.8 29.8 17.8 40 9.8 W 30 50 16 27 1002.3 - 0.0
13/03:43pm 37.1 35.1 15.5 27 13.8 NW 20 33 11 18 1002.2 - 0.0
13/03:30pm 42.3 38.6 10.3 15 19.4 ENE 20 28 11 15 1001.1 - 0.0
13/03:00pm 43.0 40.0 10.8 15 19.8 ENE 17 26 9 14 1001.1 998.3 0.0
13/02:30pm 42.8 39.2 10.6 15 19.6 ENE 20 32 11 17 1001.8 - 0.0
13/02:00pm 42.4 39.3 10.3 15 19.5 E 17 30 9 16 1002.3 - 0.0

Other Formats:

Comma delimited format used in spreadsheet applications
http://www.bom.gov.au/fwo/IDD60801/IDD60801.95322.axf

JavaScript Object Notation format (JSON) in row-major order
http://www.bom.gov.au/fwo/IDD60801/IDD60801.95322.json